Time;durP1;ratioP1;P1;durP2;ratioP2;P2;SDS_P1;SDS_P2;PMS_P1;PMS_P2;Temp;Humidity;BMP_temperature;BMP_pressure;BME280_temperature;BME280_humidity;BME280_pressure;Samples;Min_cycle;Max_cycle;Signal;HPM_P1;HPM_P2
2020/12/17 00:02:25;;;;;;;62.47;14.52;;;;;;;4.42;74.88;95673.84;4989586;28;20065;-64
2020/12/17 00:04:50;;;;;;;27.38;12.38;;;;;;;4.62;74.77;95699.56;4990128;28;20072;-64
2020/12/17 00:07:15;;;;;;;22.10;12.77;;;;;;;4.85;74.71;95700.22;4990161;28;20049;-63
2020/12/17 00:09:41;;;;;;;13.40;11.95;;;;;;;4.80;74.21;95668.56;4988352;28;20083;-63
2020/12/17 00:12:06;;;;;;;54.95;15.23;;;;;;;5.13;73.79;95707.78;4991814;28;20018;-63
2020/12/17 00:14:31;;;;;;;15.18;12.70;;;;;;;5.17;73.18;95687.00;4988793;28;20057;-64
2020/12/17 00:16:58;;;;;;;62.60;14.95;;;;;;;5.23;73.01;95688.59;4990237;28;20130;-64
2020/12/17 00:19:23;;;;;;;42.60;14.45;;;;;;;5.08;72.86;95648.97;4989680;28;20034;-64
2020/12/17 00:21:48;;;;;;;20.30;12.98;;;;;;;5.35;72.74;95683.09;4989740;28;20606;-64
2020/12/17 00:24:13;;;;;;;18.70;12.75;;;;;;;5.37;72.36;95678.34;4992004;28;20057;-63
2020/12/17 00:26:39;;;;;;;27.90;13.32;;;;;;;5.19;72.35;95647.97;4990162;28;20448;-64
2020/12/17 00:29:04;;;;;;;35.70;14.10;;;;;;;5.20;71.95;95642.41;4989797;28;20042;-64
2020/12/17 00:31:29;;;;;;;21.63;11.88;;;;;;;5.24;71.73;95640.06;4989563;28;20137;-64
2020/12/17 00:33:54;;;;;;;13.52;12.13;;;;;;;5.48;71.79;95680.81;4989598;28;20038;-65
2020/12/17 00:36:22;;;;;;;16.15;12.13;;;;;;;5.44;71.75;95661.25;4989874;28;20126;-66
2020/12/17 00:38:48;;;;;;;25.30;12.02;;;;;;;5.51;71.21;95655.72;4991388;28;20113;-64
2020/12/17 00:41:15;;;;;;;36.72;12.02;;;;;;;5.70;71.25;95685.88;4988336;28;20130;-64
2020/12/17 00:43:41;;;;;;;90.32;14.35;;;;;;;5.37;70.92;95639.56;4988502;28;20069;-64
2020/12/17 00:46:06;;;;;;;39.05;12.48;;;;;;;5.35;70.92;95646.19;4989874;28;20056;-64
2020/12/17 00:48:33;;;;;;;13.55;12.15;;;;;;;5.45;71.34;95660.19;4989472;28;20035;-65
2020/12/17 00:50:58;;;;;;;66.05;14.32;;;;;;;5.42;71.32;95660.69;4990411;28;20061;-63
2020/12/17 00:53:23;;;;;;;19.73;11.88;;;;;;;5.47;71.19;95663.34;4989539;28;20077;-64
2020/12/17 00:55:48;;;;;;;43.25;12.90;;;;;;;5.69;70.37;95688.78;4989710;28;20053;-65
2020/12/17 00:58:14;;;;;;;19.63;12.02;;;;;;;5.33;70.59;95627.19;4989247;28;20050;-65
2020/12/17 01:00:39;;;;;;;16.85;11.50;;;;;;;5.47;70.95;95658.09;4988311;28;20527;-64
2020/12/17 01:03:04;;;;;;;25.10;11.68;;;;;;;5.58;70.91;95682.69;4990883;28;20034;-64
2020/12/17 01:05:30;;;;;;;51.20;13.13;;;;;;;5.50;70.75;95667.34;4993230;28;20126;-63
2020/12/17 01:07:55;;;;;;;14.05;12.45;;;;;;;5.26;70.39;95629.25;4993289;28;20544;-64
2020/12/17 01:10:20;;;;;;;18.42;11.68;;;;;;;5.41;70.94;95660.97;4992708;28;20041;-64
2020/12/17 01:12:45;;;;;;;16.30;11.55;;;;;;;5.55;70.45;95683.19;4992833;28;20039;-64
2020/12/17 01:15:11;;;;;;;21.33;11.15;;;;;;;5.31;70.86;95634.56;4995006;28;20412;-64
2020/12/17 01:17:36;;;;;;;24.70;10.45;;;;;;;5.51;70.42;95671.56;4992844;28;20121;-64
2020/12/17 01:20:02;;;;;;;20.15;10.32;;;;;;;5.34;70.71;95640.09;4992612;28;20046;-64
2020/12/17 01:22:28;;;;;;;14.30;9.05;;;;;;;5.12;70.26;95618.41;4992636;28;20035;-64
2020/12/17 01:24:54;;;;;;;12.48;8.57;;;;;;;5.44;70.08;95686.84;4993037;28;20034;-64
2020/12/17 01:27:19;;;;;;;23.50;10.15;;;;;;;5.41;69.90;95692.63;4994733;28;20023;-64
2020/12/17 01:29:44;;;;;;;18.23;9.75;;;;;;;5.14;70.19;95654.00;4992476;28;20046;-63
2020/12/17 01:32:10;;;;;;;41.53;10.18;;;;;;;5.21;69.83;95682.78;4991737;28;20404;-63
2020/12/17 01:34:35;;;;;;;13.73;9.80;;;;;;;5.15;70.00;95667.97;4991504;28;20057;-64
2020/12/17 01:37:00;;;;;;;14.75;9.48;;;;;;;5.42;69.74;95710.03;4991360;28;20456;-64
2020/12/17 01:39:26;;;;;;;23.08;9.85;;;;;;;4.49;70.48;95584.06;4992279;28;20117;-64
2020/12/17 01:41:53;;;;;;;27.85;10.93;;;;;;;5.42;70.52;95729.28;4994198;28;20030;-64
2020/12/17 01:44:18;;;;;;;26.55;10.02;;;;;;;5.27;70.51;95708.13;4990960;28;20050;-64
2020/12/17 01:46:43;;;;;;;11.93;9.95;;;;;;;5.35;70.55;95714.75;4992468;28;20045;-64
2020/12/17 01:49:09;;;;;;;27.25;11.57;;;;;;;5.11;70.57;95686.16;4990746;28;20153;-64
2020/12/17 01:51:34;;;;;;;10.48;8.77;;;;;;;5.33;70.35;95711.59;4992095;28;20042;-64
2020/12/17 01:53:59;;;;;;;9.93;7.93;;;;;;;5.07;69.90;95666.63;4993018;28;20084;-63
2020/12/17 01:56:26;;;;;;;15.38;7.53;;;;;;;5.24;69.67;95698.09;4990808;28;20378;-63
2020/12/17 01:59:15;;;;;;;21.88;7.63;;;;;;;5.21;69.28;95690.69;4991964;28;20094;-65
2020/12/17 02:01:45;;;;;;;109.25;11.45;;;;;;;5.27;69.38;95715.25;4991565;28;20069;-64
2020/12/17 02:04:11;;;;;;;20.95;7.85;;;;;;;5.04;69.77;95682.16;4991914;28;20076;-64
2020/12/17 02:06:37;;;;;;;23.45;8.23;;;;;;;4.67;69.01;95640.81;4990679;28;20400;-62
2020/12/17 02:09:04;;;;;;;12.85;6.70;;;;;;;4.98;69.70;95697.16;4993703;28;20034;-62
2020/12/17 02:11:29;;;;;;;9.80;7.05;;;;;;;5.00;69.58;95713.50;4991670;28;20049;-65
2020/12/17 02:13:55;;;;;;;11.68;7.32;;;;;;;4.85;69.77;95690.47;4991973;28;20412;-62
2020/12/17 02:16:20;;;;;;;8.90;7.00;;;;;;;5.10;69.57;95716.19;4991025;28;20031;-62
2020/12/17 02:18:45;;;;;;;12.30;7.00;;;;;;;4.85;69.10;95677.28;4989966;28;20038;-63
2020/12/17 02:21:13;;;;;;;19.45;7.53;;;;;;;4.87;69.05;95687.59;4993698;28;20039;-62
2020/12/17 02:23:39;;;;;;;10.82;8.30;;;;;;;4.74;69.68;95680.91;4991322;28;20054;-62
2020/12/17 02:26:05;;;;;;;15.98;7.63;;;;;;;4.67;69.57;95667.97;4991657;28;20044;-62
2020/12/17 02:28:31;;;;;;;13.15;8.32;;;;;;;4.89;69.63;95690.78;4991352;28;20486;-62
2020/12/17 02:30:57;;;;;;;16.08;8.60;;;;;;;4.93;69.95;95697.13;4991571;28;20114;-62
2020/12/17 02:33:22;;;;;;;14.90;8.43;;;;;;;4.82;69.85;95677.03;4989640;28;20035;-66
2020/12/17 02:35:47;;;;;;;27.75;9.43;;;;;;;4.94;69.64;95703.97;4993448;28;20057;-64
2020/12/17 02:38:13;;;;;;;13.93;8.13;;;;;;;4.69;69.64;95663.22;4991157;28;20511;-64
2020/12/17 02:40:38;;;;;;;17.17;9.63;;;;;;;4.82;69.73;95679.66;4991322;28;20066;-64
2020/12/17 02:43:04;;;;;;;9.90;8.90;;;;;;;4.94;69.74;95720.59;4991063;28;20042;-64
2020/12/17 02:45:29;;;;;;;19.67;9.10;;;;;;;4.90;69.57;95719.50;4991195;28;20437;-63
2020/12/17 02:47:55;;;;;;;9.30;8.40;;;;;;;4.63;69.46;95679.25;4993199;28;20097;-64
2020/12/17 02:50:21;;;;;;;8.82;8.02;;;;;;;4.83;69.72;95718.94;4990964;28;20042;-64
2020/12/17 02:52:46;;;;;;;11.60;8.18;;;;;;;4.71;69.63;95705.16;4990810;28;20053;-63
2020/12/17 02:55:12;;;;;;;34.13;9.00;;;;;;;4.50;69.19;95703.38;4989929;28;20037;-62
2020/12/17 02:57:37;;;;;;;11.55;8.82;;;;;;;4.80;69.70;95747.63;4989644;28;20035;-62
2020/12/17 03:00:09;;;;;;;27.85;8.38;;;;;;;4.64;69.80;95726.44;4991401;28;20044;-62
2020/12/17 03:02:34;;;;;;;23.17;8.70;;;;;;;4.48;69.57;95711.56;4989055;28;20393;-62
2020/12/17 03:05:00;;;;;;;12.50;7.80;;;;;;;4.40;69.84;95681.22;4991001;28;20057;-62
2020/12/17 03:07:25;;;;;;;45.40;9.65;;;;;;;4.43;70.14;95678.06;4991064;28;20105;-62
2020/12/17 03:09:51;;;;;;;26.85;9.00;;;;;;;4.80;69.91;95737.09;4990627;28;20038;-63
2020/12/17 03:12:17;;;;;;;11.15;8.93;;;;;;;4.60;70.07;95698.19;4992552;28;20042;-63
2020/12/17 03:14:42;;;;;;;12.30;8.48;;;;;;;4.47;69.94;95667.81;4990824;28;20042;-63
2020/12/17 03:17:07;;;;;;;10.02;8.00;;;;;;;4.83;69.94;95732.13;4990576;28;20104;-62
2020/12/17 03:19:33;;;;;;;44.20;9.55;;;;;;;4.48;69.89;95677.31;4990473;28;20046;-63
2020/12/17 03:21:58;;;;;;;16.02;8.23;;;;;;;4.50;69.97;95698.91;4990493;28;20121;-64
2020/12/17 03:24:23;;;;;;;15.02;8.52;;;;;;;4.44;70.04;95689.38;4990745;28;20026;-65
2020/12/17 03:26:48;;;;;;;18.67;9.32;;;;;;;4.52;70.26;95702.09;4991817;28;20034;-63
2020/12/17 03:29:14;;;;;;;17.05;8.38;;;;;;;4.65;70.41;95716.69;4989240;28;20126;-64
2020/12/17 03:31:39;;;;;;;19.35;8.35;;;;;;;4.76;70.22;95728.91;4989992;28;20041;-64
2020/12/17 03:34:05;;;;;;;31.50;8.70;;;;;;;4.50;70.45;95693.63;4990280;28;20494;-63
2020/12/17 03:36:30;;;;;;;31.30;8.98;;;;;;;4.56;70.27;95692.66;4989177;28;20504;-63
2020/12/17 03:38:55;;;;;;;10.75;7.85;;;;;;;4.60;70.43;95699.00;4992030;28;20042;-64
2020/12/17 03:41:20;;;;;;;15.98;7.53;;;;;;;4.59;70.23;95702.69;4988896;28;20049;-63
2020/12/17 03:43:46;;;;;;;37.67;8.63;;;;;;;4.64;70.25;95710.63;4990286;28;20046;-65
2020/12/17 03:46:11;;;;;;;18.35;8.40;;;;;;;4.72;69.97;95719.91;4989064;28;20117;-63
2020/12/17 03:48:36;;;;;;;19.83;7.80;;;;;;;4.52;70.22;95680.25;4990046;28;20381;-63
2020/12/17 03:51:02;;;;;;;18.05;8.52;;;;;;;4.76;70.69;95707.84;4992350;28;20058;-63
2020/12/17 03:53:27;;;;;;;14.10;8.98;;;;;;;4.69;70.42;95705.38;4988780;28;20678;-64
2020/12/17 03:55:52;;;;;;;18.25;8.55;;;;;;;4.68;70.35;95703.81;4988829;28;20042;-64
2020/12/17 03:58:18;;;;;;;86.50;9.88;;;;;;;4.63;69.73;95709.03;4989765;28;20149;-64
2020/12/17 04:00:43;;;;;;;62.08;11.02;;;;;;;4.64;70.14;95733.53;4990105;28;20089;-65
2020/12/17 04:03:08;;;;;;;19.60;9.15;;;;;;;4.58;70.71;95726.66;4989975;28;20026;-63
2020/12/17 04:05:34;;;;;;;72.10;12.48;;;;;;;4.53;70.65;95718.69;4990025;28;20452;-64
2020/12/17 04:07:59;;;;;;;11.73;8.40;;;;;;;4.23;70.85;95679.72;4990199;28;20054;-64
2020/12/17 04:10:24;;;;;;;61.42;10.77;;;;;;;4.44;70.80;95710.44;4988470;28;20037;-64
2020/12/17 04:12:50;;;;;;;23.55;7.40;;;;;;;4.49;70.78;95717.59;4989702;28;20042;-64
2020/12/17 04:15:15;;;;;;;30.88;8.20;;;;;;;4.02;70.53;95713.75;4991890;28;20066;-64
2020/12/17 04:17:40;;;;;;;73.40;8.98;;;;;;;4.41;71.39;95758.38;4989678;28;20042;-63
2020/12/17 04:20:06;;;;;;;39.20;8.43;;;;;;;4.22;71.07;95738.72;4989748;28;20043;-64
2020/12/17 04:22:32;;;;;;;52.42;8.57;;;;;;;4.29;71.16;95749.81;4989809;28;20477;-62
2020/12/17 04:24:57;;;;;;;74.30;9.05;;;;;;;4.41;71.29;95772.34;4990119;28;20042;-62
2020/12/17 04:27:23;;;;;;;124.95;10.50;;;;;;;4.48;70.83;95789.78;4988736;28;20555;-64
2020/12/17 04:29:48;;;;;;;71.88;10.57;;;;;;;4.29;71.07;95770.88;4990229;28;20026;-62
2020/12/17 04:32:13;;;;;;;33.45;8.20;;;;;;;4.13;71.44;95741.78;4989210;28;20105;-62
2020/12/17 04:34:39;;;;;;;15.38;7.15;;;;;;;4.22;71.38;95738.72;4989851;28;20038;-62
2020/12/17 04:37:04;;;;;;;27.08;7.53;;;;;;;4.34;70.83;95742.75;4989805;28;20045;-62
2020/12/17 04:39:29;;;;;;;15.05;7.10;;;;;;;4.51;71.02;95765.59;4991654;28;20080;-62
2020/12/17 04:41:56;;;;;;;23.60;8.27;;;;;;;4.24;71.14;95726.88;4994045;28;20074;-62
2020/12/17 04:44:22;;;;;;;24.15;7.97;;;;;;;4.50;71.10;95759.50;4993678;28;20043;-62
2020/12/17 04:46:59;;;;;;;13.80;7.50;;;;;;;4.50;70.68;95751.59;4993504;28;20401;-64
2020/12/17 04:49:32;;;;;;;30.88;8.63;;;;;;;4.70;70.31;95779.97;4992059;28;20034;-64
2020/12/17 04:51:58;;;;;;;123.40;11.80;;;;;;;4.54;70.60;95752.69;4992025;28;20026;-64
2020/12/17 04:54:24;;;;;;;65.25;10.63;;;;;;;4.68;70.47;95780.22;4993324;28;20036;-66
2020/12/17 04:57:05;;;;;;;22.88;9.63;;;;;;;4.36;70.57;95729.38;4995377;28;20038;-64
2020/12/17 04:59:41;;;;;;;38.70;9.05;;;;;;;4.64;70.51;95770.44;4993205;28;20050;-63
2020/12/17 05:02:07;;;;;;;47.20;8.73;;;;;;;4.47;70.35;95757.38;4992410;28;20176;-64
2020/12/17 05:04:41;;;;;;;16.13;6.75;;;;;;;4.33;70.29;95735.91;4991831;28;20556;-63
2020/12/17 05:07:10;;;;;;;20.00;7.43;;;;;;;4.20;70.39;95717.91;4993213;28;20042;-64
2020/12/17 05:09:36;;;;;;;13.32;7.82;;;;;;;4.48;70.78;95756.34;4992797;28;20066;-63
2020/12/17 05:12:01;;;;;;;15.25;7.07;;;;;;;4.47;70.68;95757.38;4994838;28;20039;-63
2020/12/17 05:14:28;;;;;;;27.27;8.55;;;;;;;4.41;70.41;95753.13;4991708;28;20511;-63
2020/12/17 05:16:54;;;;;;;39.05;7.57;;;;;;;3.78;70.25;95657.97;4991760;28;20038;-61
2020/12/17 05:19:20;;;;;;;15.45;7.32;;;;;;;4.31;70.13;95743.28;4992450;28;20069;-64
2020/12/17 05:21:46;;;;;;;46.15;7.95;;;;;;;4.41;69.50;95784.72;4992692;28;20563;-64
2020/12/17 05:24:11;;;;;;;70.25;9.00;;;;;;;3.84;70.69;95764.13;4993448;28;20041;-63
2020/12/17 05:26:37;;;;;;;69.75;11.88;;;;;;;3.80;71.25;95766.44;4991599;28;20039;-63
2020/12/17 05:29:03;;;;;;;41.63;8.77;;;;;;;3.87;72.13;95776.75;4991441;28;20038;-63
2020/12/17 05:31:33;;;;;;;25.67;7.47;;;;;;;3.84;71.91;95782.53;4991071;28;20057;-63
2020/12/17 05:34:05;;;;;;;11.40;6.85;;;;;;;4.07;71.85;95803.31;4992348;28;20054;-63
2020/12/17 05:36:31;;;;;;;9.43;6.90;;;;;;;4.17;71.50;95806.06;4992629;28;20034;-63
2020/12/17 05:39:21;;;;;;;18.30;8.00;;;;;;;4.33;71.17;95808.88;4992711;28;20041;-63
2020/12/17 05:41:49;;;;;;;13.15;7.30;;;;;;;4.42;71.16;95818.72;4991321;28;20133;-64
2020/12/17 05:44:20;;;;;;;12.00;6.43;;;;;;;4.47;70.68;95825.88;4991120;28;20404;-62
2020/12/17 05:46:48;;;;;;;11.55;6.70;;;;;;;4.50;70.08;95832.47;4992437;28;20181;-62
2020/12/17 05:49:21;;;;;;;7.32;6.63;;;;;;;4.49;70.34;95833.53;4992116;28;20030;-60
2020/12/17 05:51:48;;;;;;;7.25;6.40;;;;;;;4.27;70.25;95796.69;4991080;28;20042;-60
2020/12/17 05:54:22;;;;;;;10.80;6.65;;;;;;;4.16;69.71;95772.88;4994144;28;20040;-63
2020/12/17 05:56:49;;;;;;;12.55;7.22;;;;;;;4.51;69.75;95826.19;4988909;28;20427;-60
2020/12/17 05:59:22;;;;;;;39.47;7.95;;;;;;;4.09;69.72;95766.22;4990857;28;20189;-59
2020/12/17 06:01:48;;;;;;;50.13;10.10;;;;;;;4.34;69.58;95824.41;4988712;28;20046;-63
2020/12/17 06:04:15;;;;;;;44.22;9.93;;;;;;;3.79;69.90;95767.47;4990707;28;20039;-64
2020/12/17 06:06:47;;;;;;;20.45;7.53;;;;;;;3.89;70.18;95807.06;4992113;28;20034;-60
2020/12/17 06:09:21;;;;;;;51.10;9.10;;;;;;;4.03;71.00;95835.66;4992504;28;20120;-65
2020/12/17 06:11:47;;;;;;;23.48;8.32;;;;;;;3.90;71.09;95818.41;4991920;28;20527;-65
2020/12/17 06:14:14;;;;;;;24.90;8.23;;;;;;;3.98;70.52;95844.28;4990667;28;20050;-65
2020/12/17 06:16:43;;;;;;;18.17;7.38;;;;;;;3.86;71.06;95822.53;4991822;28;20046;-64
2020/12/17 06:19:11;;;;;;;40.95;8.55;;;;;;;2.67;72.50;95783.50;4991172;28;20042;-65
2020/12/17 06:21:40;;;;;;;23.92;7.93;;;;;;;3.23;73.55;95850.09;4991281;28;20038;-66
2020/12/17 06:24:06;;;;;;;21.73;8.07;;;;;;;3.30;73.25;95821.78;4993769;28;20045;-65
2020/12/17 06:26:38;;;;;;;8.05;7.07;;;;;;;3.64;73.10;95843.59;4990282;28;20038;-65
2020/12/17 06:29:16;;;;;;;13.90;7.25;;;;;;;3.71;72.79;95835.50;4991253;28;20116;-65
2020/12/17 06:32:15;;;;;;;8.40;7.35;;;;;;;3.90;71.94;95850.78;4989515;28;20034;-64
2020/12/17 06:34:42;;;;;;;10.80;6.93;;;;;;;3.85;71.58;95828.84;4990041;28;20093;-66
2020/12/17 06:37:11;;;;;;;9.32;5.85;;;;;;;4.05;71.00;95844.91;4990103;28;20423;-65
2020/12/17 06:39:37;;;;;;;7.10;6.00;;;;;;;3.83;70.68;95821.19;4991037;28;20026;-65
2020/12/17 06:42:02;;;;;;;10.27;5.30;;;;;;;3.77;70.59;95810.84;4993184;28;20030;-66
2020/12/17 06:44:30;;;;;;;17.30;6.40;;;;;;;3.82;70.29;95830.13;4991421;28;20125;-65
2020/12/17 06:47:00;;;;;;;6.30;5.50;;;;;;;3.94;70.24;95848.44;4989955;28;20475;-66
2020/12/17 06:49:27;;;;;;;10.60;6.60;;;;;;;4.01;70.29;95871.97;4989579;28;20038;-66
2020/12/17 06:52:03;;;;;;;11.38;6.95;;;;;;;4.02;70.33;95873.53;4990068;28;20041;-68
2020/12/17 06:54:28;;;;;;;5.90;5.32;;;;;;;4.02;69.95;95874.34;4987613;28;20534;-66
2020/12/17 06:57:19;;;;;;;8.27;6.28;;;;;;;4.03;70.22;95883.81;4991025;28;20109;-68
2020/12/17 07:00:04;;;;;;;6.53;5.95;;;;;;;4.02;70.23;95879.59;4973373;28;20468;-66
2020/12/17 07:02:40;;;;;;;13.43;6.38;;;;;;;4.00;70.01;95886.97;4990110;28;20054;-67
2020/12/17 07:05:05;;;;;;;13.23;6.28;;;;;;;3.75;70.22;95855.84;4990657;28;20047;-69
2020/12/17 07:07:43;;;;;;;6.32;5.78;;;;;;;4.01;70.25;95903.53;4991084;28;20045;-68
2020/12/17 07:10:24;;;;;;;5.88;5.40;;;;;;;4.01;69.92;95900.91;4990456;28;20049;-68
2020/12/17 07:12:50;;;;;;;6.40;5.90;;;;;;;3.82;69.94;95888.03;4973107;28;20548;-69
2020/12/17 07:15:43;;;;;;;15.13;5.90;;;;;;;3.29;70.67;95918.28;4992767;28;20053;-71
2020/12/17 07:18:22;;;;;;;5.95;5.30;;;;;;;3.54;70.64;95901.31;4991246;28;20133;-65
2020/12/17 07:21:10;;;;;;;5.75;5.25;;;;;;;3.51;70.71;95894.69;4990745;28;20061;-70
2020/12/17 07:23:37;;;;;;;5.75;5.25;;;;;;;3.79;70.73;95928.00;4989992;28;20057;-65
2020/12/17 07:26:12;;;;;;;6.68;5.93;;;;;;;3.43;70.00;95850.41;4990750;28;20404;-69
2020/12/17 07:28:38;;;;;;;7.85;5.95;;;;;;;3.45;69.74;95858.81;4957003;28;20042;-65
2020/12/17 07:31:05;;;;;;;6.72;6.05;;;;;;;3.67;69.48;95937.00;4990521;28;20038;-63
2020/12/17 07:33:41;;;;;;;5.97;5.47;;;;;;;2.31;74.01;95914.16;4989815;28;20037;-70
2020/12/17 07:36:08;;;;;;;5.88;5.47;;;;;;;2.95;74.77;95935.84;4988804;23;20572;-73
2020/12/17 07:38:33;;;;;;;5.22;4.82;;;;;;;3.14;73.61;95886.50;4985446;28;20113;-81
2020/12/17 07:40:59;;;;;;;6.20;4.65;;;;;;;3.71;72.35;95935.50;4970715;28;20397;-82
2020/12/17 07:43:39;;;;;;;5.32;4.93;;;;;;;4.06;71.55;95932.56;4971652;28;20480;-74
2020/12/17 07:46:05;;;;;;;5.47;5.03;;;;;;;4.24;70.40;95919.09;4970522;28;20039;-77
2020/12/17 07:48:34;;;;;;;5.28;4.88;;;;;;;4.40;69.49;95913.00;4968374;28;20113;-72
2020/12/17 07:51:08;;;;;;;5.20;4.80;;;;;;;4.66;69.10;95927.25;4972438;28;20093;-82
2020/12/17 07:53:36;;;;;;;4.38;4.07;;;;;;;4.89;68.60;95938.56;4970462;28;20042;-74
2020/12/17 07:56:03;;;;;;;4.55;4.25;;;;;;;4.89;67.35;95909.56;4971845;28;20129;-74
2020/12/17 07:58:28;;;;;;;4.60;4.20;;;;;;;5.12;66.44;95930.38;4971630;28;20494;-79
2020/12/17 08:00:58;;;;;;;5.50;4.55;;;;;;;5.25;66.57;95938.91;4969741;28;20074;-72
2020/12/17 08:03:24;;;;;;;4.28;3.97;;;;;;;5.18;65.29;95916.16;4972201;28;20131;-71
2020/12/17 08:05:50;;;;;;;4.75;4.45;;;;;;;5.15;65.42;95900.03;4969507;28;20047;-71
2020/12/17 08:08:17;;;;;;;4.47;4.18;;;;;;;5.34;65.17;95924.22;4968910;28;20126;-71
2020/12/17 08:10:44;;;;;;;4.38;4.00;;;;;;;5.13;64.83;95878.41;4966211;28;20058;-71
2020/12/17 08:13:10;;;;;;;4.05;3.75;;;;;;;5.42;64.26;95937.72;4955768;28;20051;-71
2020/12/17 08:15:35;;;;;;;5.85;5.22;;;;;;;5.19;64.74;95927.50;4974800;28;20031;-72
2020/12/17 08:18:02;;;;;;;4.63;4.32;;;;;;;3.34;68.78;95899.97;4976674;28;20023;-72
2020/12/17 08:20:31;;;;;;;4.90;4.50;;;;;;;4.32;68.11;95939.75;4973063;28;20035;-72
2020/12/17 08:22:57;;;;;;;4.30;4.00;;;;;;;4.16;67.98;95878.22;4972794;28;20066;-72
2020/12/17 08:25:24;;;;;;;4.38;4.07;;;;;;;4.60;68.05;95917.69;4972785;28;20074;-72
2020/12/17 08:27:52;;;;;;;4.90;4.50;;;;;;;4.33;67.17;95872.06;4973382;28;20030;-73
2020/12/17 08:30:20;;;;;;;5.10;4.78;;;;;;;4.96;67.10;95954.97;4976192;28;20034;-72
2020/12/17 08:32:47;;;;;;;5.00;4.68;;;;;;;4.91;66.99;95960.19;4971570;28;20034;-71
2020/12/17 08:35:18;;;;;;;5.00;4.60;;;;;;;3.74;69.76;95956.06;4973190;28;20611;-69
2020/12/17 08:37:43;;;;;;;5.10;4.70;;;;;;;4.28;68.67;95914.16;4972905;28;20046;-69
2020/12/17 08:40:10;;;;;;;5.30;4.90;;;;;;;4.68;67.85;95963.91;4974060;28;20050;-72
2020/12/17 08:42:36;;;;;;;6.75;6.15;;;;;;;4.84;68.05;95963.03;4972789;28;20030;-72
2020/12/17 08:45:08;;;;;;;6.15;5.55;;;;;;;5.02;67.49;95975.09;4975163;28;20027;-71
2020/12/17 08:47:37;;;;;;;5.20;4.80;;;;;;;4.99;67.12;95933.38;4972859;28;20034;-72
2020/12/17 08:50:04;;;;;;;3.75;3.47;;;;;;;5.22;66.21;95980.56;4973757;28;20093;-71
2020/12/17 08:52:32;;;;;;;4.30;3.90;;;;;;;5.03;66.33;95979.31;4972862;28;20035;-72
2020/12/17 08:55:04;;;;;;;4.57;4.25;;;;;;;4.92;67.07;95969.72;4972805;28;20546;-70
2020/12/17 08:57:30;;;;;;;4.22;3.80;;;;;;;5.12;66.75;95958.59;4971490;28;20054;-71
2020/12/17 08:59:55;;;;;;;3.75;3.45;;;;;;;5.25;66.57;95968.72;4975665;28;20070;-72
2020/12/17 09:02:30;;;;;;;4.20;3.90;;;;;;;5.39;66.03;95987.59;4973312;28;20112;-70
2020/12/17 09:05:00;;;;;;;4.53;4.05;;;;;;;4.97;67.08;95975.03;4972582;28;20189;-70
2020/12/17 09:07:34;;;;;;;4.22;3.85;;;;;;;5.37;66.59;95985.16;4973771;28;20402;-71
2020/12/17 09:10:08;;;;;;;3.95;3.67;;;;;;;5.57;66.92;95992.47;4973573;28;20489;-71
2020/12/17 09:12:33;;;;;;;3.78;3.47;;;;;;;5.58;66.98;95972.97;4973575;28;20392;-73
2020/12/17 09:15:10;;;;;;;4.10;3.80;;;;;;;5.79;65.70;95995.06;4975641;28;20025;-71
2020/12/17 09:17:36;;;;;;;5.07;3.45;;;;;;;5.82;65.87;96001.66;4971974;28;20047;-71
2020/12/17 09:20:17;;;;;;;4.15;3.85;;;;;;;5.48;66.00;96012.47;4972059;28;20576;-70
2020/12/17 09:22:43;;;;;;;3.95;3.65;;;;;;;5.50;66.73;95989.25;4971311;28;20250;-71
2020/12/17 09:25:08;;;;;;;4.10;3.80;;;;;;;5.56;66.51;95959.22;4972174;28;20584;-72
2020/12/17 09:27:35;;;;;;;5.05;4.65;;;;;;;4.95;68.54;96006.09;4972346;28;20023;-72
2020/12/17 09:30:08;;;;;;;5.25;4.60;;;;;;;4.48;70.33;96009.22;4975356;28;20023;-72
2020/12/17 09:32:36;;;;;;;5.55;5.05;;;;;;;4.10;72.35;96012.66;4971508;28;20063;-71
2020/12/17 09:35:05;;;;;;;5.88;5.38;;;;;;;4.07;72.74;95999.97;4973566;28;20041;-71
2020/12/17 09:37:31;;;;;;;5.13;4.72;;;;;;;3.91;73.96;96001.59;4973116;28;20086;-72
2020/12/17 09:39:57;;;;;;;4.65;4.32;;;;;;;3.89;73.93;95999.19;4971782;28;20046;-71
2020/12/17 09:42:23;;;;;;;4.88;4.35;;;;;;;3.89;73.30;95988.69;4975311;28;20031;-71
2020/12/17 09:44:49;;;;;;;4.43;4.13;;;;;;;4.23;73.46;96004.41;4971891;28;20034;-72
2020/12/17 09:47:32;;;;;;;4.95;4.60;;;;;;;3.78;74.46;96002.69;4973361;28;20030;-70
2020/12/17 09:50:26;;;;;;;5.22;4.78;;;;;;;3.88;74.63;96002.84;4972545;28;20537;-73
2020/12/17 09:52:52;;;;;;;4.88;4.47;;;;;;;4.44;72.97;96005.47;4963687;28;20043;-72
2020/12/17 09:55:17;;;;;;;5.40;5.00;;;;;;;4.48;71.50;95995.25;4972828;28;20061;-71
2020/12/17 09:57:44;;;;;;;5.22;4.78;;;;;;;5.00;71.32;96003.53;4971484;28;20118;-71
2020/12/17 10:00:12;;;;;;;4.40;4.10;;;;;;;5.12;70.63;95991.03;4973140;28;20019;-72
2020/12/17 10:02:39;;;;;;;4.78;4.40;;;;;;;4.88;70.66;95950.16;4987113;28;20045;-71
2020/12/17 10:05:05;;;;;;;4.47;4.18;;;;;;;5.20;70.67;95950.19;4971356;28;20085;-72
2020/12/17 10:07:31;;;;;;;5.68;5.13;;;;;;;5.48;69.88;95978.97;4971558;28;20043;-73
2020/12/17 10:09:56;;;;;;;5.00;4.57;;;;;;;5.40;69.60;95942.47;4971112;28;20041;-71
2020/12/17 10:12:22;;;;;;;5.05;4.65;;;;;;;5.73;69.19;95962.53;4973092;28;20094;-72
2020/12/17 10:14:47;;;;;;;4.72;4.43;;;;;;;5.99;69.34;95989.97;4971594;28;20042;-71
2020/12/17 10:17:13;;;;;;;4.93;4.47;;;;;;;5.96;69.02;95969.31;4972632;28;20545;-72
2020/12/17 10:19:38;;;;;;;5.47;5.07;;;;;;;5.93;68.88;95945.25;4986707;28;20066;-71
2020/12/17 10:22:03;;;;;;;5.78;5.28;;;;;;;6.23;68.45;95985.06;4972182;28;20037;-70
2020/12/17 10:24:28;;;;;;;4.93;4.53;;;;;;;6.01;68.21;95938.72;4972310;28;20029;-72
2020/12/17 10:26:54;;;;;;;5.28;4.88;;;;;;;6.14;68.75;95946.19;4972986;28;20113;-72
2020/12/17 10:29:19;;;;;;;4.80;4.32;;;;;;;6.26;68.41;95957.34;4986260;28;20047;-72
2020/12/17 10:31:47;;;;;;;4.60;4.20;;;;;;;6.46;67.64;95975.16;4970229;28;20053;-73
2020/12/17 10:34:17;;;;;;;5.05;4.47;;;;;;;6.74;68.20;96006.47;4970393;28;20453;-72
2020/12/17 10:36:44;;;;;;;4.43;4.03;;;;;;;6.81;68.05;96008.91;4971191;28;20562;-72
2020/12/17 10:39:10;;;;;;;4.43;4.03;;;;;;;6.73;67.48;96006.75;4972472;28;20027;-72
2020/12/17 10:41:38;;;;;;;4.40;4.00;;;;;;;6.46;68.77;95991.81;4972004;28;20042;-72
2020/12/17 10:44:05;;;;;;;4.50;4.10;;;;;;;6.72;68.69;95986.66;4971727;28;20055;-74
2020/12/17 10:46:31;;;;;;;4.43;4.07;;;;;;;6.95;68.07;95995.97;4969550;28;20041;-67
2020/12/17 10:48:57;;;;;;;5.18;4.68;;;;;;;7.09;67.81;96002.38;4971846;28;20130;-72
2020/12/17 10:51:22;;;;;;;5.03;4.03;;;;;;;7.10;67.42;95982.81;4973674;28;20133;-69
2020/12/17 10:53:47;;;;;;;4.43;4.13;;;;;;;7.01;67.21;95981.72;4971511;28;20042;-72
2020/12/17 10:56:12;;;;;;;4.45;4.10;;;;;;;7.21;67.37;95976.47;4971772;28;20485;-73
2020/12/17 10:58:38;;;;;;;4.57;3.95;;;;;;;7.44;67.16;95992.94;4971552;28;20046;-74
2020/12/17 11:01:04;;;;;;;4.55;4.25;;;;;;;7.11;66.87;95939.41;4971762;28;20043;-74
2020/12/17 11:03:29;;;;;;;4.40;4.00;;;;;;;7.54;67.10;95988.44;4971038;28;20102;-72
2020/12/17 11:05:56;;;;;;;5.20;4.70;;;;;;;7.66;66.22;95980.25;4973668;28;20031;-72
2020/12/17 11:08:23;;;;;;;5.35;4.90;;;;;;;7.63;66.55;95948.22;4971492;28;20053;-73
2020/12/17 11:10:49;;;;;;;4.78;4.38;;;;;;;7.90;66.50;95985.81;4971689;28;20027;-74
2020/12/17 11:13:14;;;;;;;6.72;5.40;;;;;;;7.61;66.71;95969.66;4970233;28;20041;-74
2020/12/17 11:15:40;;;;;;;5.88;5.38;;;;;;;7.86;66.36;95973.34;4970514;28;20469;-74
2020/12/17 11:18:06;;;;;;;6.45;5.38;;;;;;;8.06;66.16;95994.53;4973398;28;20038;-73
2020/12/17 11:20:31;;;;;;;5.55;5.05;;;;;;;8.24;65.55;95995.81;4971517;28;20138;-73
2020/12/17 11:22:56;;;;;;;6.90;6.20;;;;;;;7.80;66.44;95976.00;4971426;28;20837;-73
2020/12/17 11:25:21;;;;;;;7.00;6.28;;;;;;;7.90;66.68;95995.63;4971640;28;20039;-75
2020/12/17 11:27:49;;;;;;;7.85;6.47;;;;;;;7.49;67.46;95998.25;4970518;28;20069;-75
2020/12/17 11:30:14;;;;;;;6.93;6.22;;;;;;;7.82;66.40;95943.94;4973062;28;20019;-73
2020/12/17 11:32:40;;;;;;;7.78;6.95;;;;;;;8.02;66.20;95966.97;4970536;28;20038;-75
2020/12/17 11:35:06;;;;;;;7.22;6.53;;;;;;;8.11;65.38;95952.13;4971256;28;20038;-72
2020/12/17 11:37:33;;;;;;;10.75;7.25;;;;;;;8.33;65.35;95984.41;4971019;28;20073;-72
2020/12/17 11:40:00;;;;;;;8.65;7.38;;;;;;;8.25;65.34;95950.53;4970769;28;20049;-72